Shotley Gate, United Kingdom
Current Conditions -  °F | °C
As of 5:50 AM on Thursday 27 Nov 2014 (Local Time) from EGUW Reporting Station
Haze Haze  
Wind Chill: 50°   Ceiling: 400
Heat Index: 50°   Visibility: 2.5mi
Dew Point: 50°   Wind: 7mph
Humidity: 100%   Direction: 160°SSE
Pressure: 29.62"   Gusts: NA
Location:  51.96°N, 1.27°E
Report Text: EGUW 270550Z 16006KT 4000 BR OVC004 10/10 Q1003 YLO2 BECMG 6000 BKN006 YL01
Loading
Personal Weather Stations






























Interactive Weather Map New forecast layout! Learn more

10-Day Weather Forecast

Advertisements
Track Severe Weather on mobile